Time;durP1;ratioP1;P1;durP2;ratioP2;P2;SDS_P1;SDS_P2;PMS_P1;PMS_P2;Temp;Humidity;BMP_temperature;BMP_pressure;BME280_temperature;BME280_humidity;BME280_pressure;Samples;Min_cycle;Max_cycle;Signal;HPM_P1;HPM_P2
2021/10/03 00:01:19;;;;;;;8.05;5.05;;;;;;;18.58;63.78;99235.38;5060034;28;20055;-53
2021/10/03 00:03:49;;;;;;;8.57;4.82;;;;;;;18.55;63.97;99240.19;5055551;28;20048;-54
2021/10/03 00:06:18;;;;;;;8.20;5.40;;;;;;;18.52;64.02;99244.00;5069906;28;20042;-53
2021/10/03 00:08:45;;;;;;;5.97;4.53;;;;;;;18.54;63.45;99246.53;5066221;28;20044;-53
2021/10/03 00:11:13;;;;;;;7.20;4.45;;;;;;;18.53;63.76;99234.97;5065923;28;20052;-53
2021/10/03 00:13:40;;;;;;;6.50;4.40;;;;;;;18.51;63.84;99236.97;5059788;28;20048;-53
2021/10/03 00:16:07;;;;;;;8.90;4.82;;;;;;;18.44;63.49;99217.09;5061838;28;20056;-54
2021/10/03 00:18:35;;;;;;;5.25;4.20;;;;;;;18.53;63.66;99234.97;5052010;28;20049;-54
2021/10/03 00:21:03;;;;;;;6.00;4.38;;;;;;;18.52;63.59;99225.25;5069440;28;20037;-54
2021/10/03 00:23:31;;;;;;;7.72;4.75;;;;;;;18.51;63.78;99233.44;5055239;28;20560;-54
2021/10/03 00:25:58;;;;;;;7.00;4.30;;;;;;;18.52;63.31;99229.78;5062028;28;20051;-53
2021/10/03 00:28:25;;;;;;;5.40;4.30;;;;;;;18.51;63.52;99225.41;5061326;28;20513;-55
2021/10/03 00:30:52;;;;;;;6.78;4.50;;;;;;;18.47;63.62;99218.63;5062849;28;20048;-54
2021/10/03 00:33:18;;;;;;;6.22;4.40;;;;;;;18.43;63.68;99223.44;5056214;28;20075;-54
2021/10/03 00:35:45;;;;;;;6.00;4.43;;;;;;;18.39;63.72;99216.72;5068987;28;20571;-53
2021/10/03 00:38:11;;;;;;;5.70;4.70;;;;;;;18.37;63.94;99218.72;5063293;28;20044;-54
2021/10/03 00:40:40;;;;;;;5.95;4.25;;;;;;;18.37;64.32;99221.41;5059687;28;20041;-54
2021/10/03 00:43:08;;;;;;;6.68;4.68;;;;;;;18.36;63.92;99217.03;5053655;28;20044;-54
2021/10/03 00:45:37;;;;;;;6.38;4.20;;;;;;;18.39;63.59;99226.59;5066514;28;20056;-53
2021/10/03 00:48:04;;;;;;;6.45;4.80;;;;;;;18.38;63.40;99217.72;5065285;28;20051;-55
2021/10/03 00:50:33;;;;;;;5.55;4.30;;;;;;;18.42;62.66;99216.41;5058898;28;20056;-54
2021/10/03 00:52:59;;;;;;;5.18;4.10;;;;;;;18.51;62.09;99212.00;5065429;28;20385;-54
2021/10/03 00:55:27;;;;;;;4.53;3.75;;;;;;;18.54;61.91;99209.03;5060905;28;20060;-53
2021/10/03 00:57:54;;;;;;;6.25;4.05;;;;;;;18.53;61.70;99207.31;5060028;28;20039;-53
2021/10/03 01:00:25;;;;;;;5.72;3.83;;;;;;;18.55;61.71;99199.97;5063327;28;20048;-55
2021/10/03 01:02:53;;;;;;;4.65;3.78;;;;;;;18.57;61.47;99198.00;5055774;28;20071;-54
2021/10/03 01:05:21;;;;;;;4.88;4.10;;;;;;;18.58;61.29;99194.28;5061889;28;20049;-53
2021/10/03 01:07:47;;;;;;;6.50;4.47;;;;;;;18.58;61.53;99195.16;5062173;28;20045;-53
2021/10/03 01:10:23;;;;;;;5.93;4.18;;;;;;;18.61;61.20;99191.34;5056702;28;20040;-53
2021/10/03 01:12:57;;;;;;;5.35;4.20;;;;;;;18.60;61.46;99195.00;5056578;28;20114;-53
2021/10/03 01:15:25;;;;;;;6.15;3.97;;;;;;;18.56;61.60;99191.78;5056731;28;20044;-54
2021/10/03 01:17:52;;;;;;;5.07;4.10;;;;;;;18.54;61.53;99184.88;5055958;28;20059;-53
2021/10/03 01:20:19;;;;;;;5.97;4.25;;;;;;;18.56;61.58;99197.16;5058228;28;20052;-53
2021/10/03 01:22:46;;;;;;;6.53;4.25;;;;;;;18.58;61.27;99195.16;5064818;28;20052;-53
2021/10/03 01:25:14;;;;;;;4.82;4.13;;;;;;;18.61;61.37;99191.34;5064034;28;20044;-53
2021/10/03 01:27:40;;;;;;;5.25;4.13;;;;;;;18.62;61.10;99195.72;5065375;28;20567;-54
2021/10/03 01:30:10;;;;;;;5.30;4.32;;;;;;;18.62;61.33;99190.34;5063470;28;20048;-54
2021/10/03 01:32:37;;;;;;;5.32;4.10;;;;;;;18.65;60.93;99192.72;5061447;28;20041;-54
2021/10/03 01:35:05;;;;;;;5.80;4.10;;;;;;;18.70;61.03;99195.81;5059778;28;20058;-53
2021/10/03 01:37:33;;;;;;;5.72;4.50;;;;;;;18.75;60.62;99192.66;5060558;28;20300;-61
2021/10/03 01:40:06;;;;;;;5.22;4.20;;;;;;;18.62;60.48;99174.25;5051476;28;20072;-58
2021/10/03 01:42:32;;;;;;;9.00;4.20;;;;;;;18.71;60.63;99183.25;5055232;28;20061;-53
2021/10/03 01:45:00;;;;;;;6.28;4.20;;;;;;;18.69;61.08;99180.72;5062251;28;20169;-54
2021/10/03 01:47:26;;;;;;;5.95;4.32;;;;;;;18.69;60.94;99187.91;5064024;28;20056;-53
2021/10/03 01:49:52;;;;;;;4.50;3.85;;;;;;;18.68;61.09;99181.72;5051275;28;20053;-53
2021/10/03 01:52:19;;;;;;;5.68;4.03;;;;;;;18.75;60.38;99177.41;5064534;28;20095;-53
2021/10/03 01:54:46;;;;;;;5.93;4.40;;;;;;;18.74;60.87;99178.41;5065252;28;20064;-52
2021/10/03 01:57:13;;;;;;;6.85;4.30;;;;;;;18.75;60.79;99173.88;5060529;28;20060;-52
2021/10/03 01:59:40;;;;;;;6.32;3.78;;;;;;;18.73;60.54;99170.53;5060596;28;20131;-54
2021/10/03 02:02:07;;;;;;;6.57;4.28;;;;;;;18.69;61.07;99175.34;5060512;28;20052;-52
2021/10/03 02:04:33;;;;;;;4.80;4.25;;;;;;;18.67;60.91;99169.28;5059613;28;20049;-52
2021/10/03 02:07:00;;;;;;;5.47;4.00;;;;;;;18.63;61.24;99172.44;5053604;28;20305;-56
2021/10/03 02:09:28;;;;;;;4.55;3.95;;;;;;;18.58;61.33;99164.81;5061186;28;20044;-52
2021/10/03 02:12:00;;;;;;;4.20;3.47;;;;;;;18.53;61.80;99176.00;5053656;28;20041;-52
2021/10/03 02:14:31;;;;;;;4.18;3.78;;;;;;;18.53;61.65;99167.13;5055338;28;20506;-52
2021/10/03 02:16:59;;;;;;;5.63;3.97;;;;;;;18.54;61.67;99166.97;5051173;28;20052;-53
2021/10/03 02:19:27;;;;;;;6.22;4.10;;;;;;;18.53;61.54;99162.59;5053226;28;20053;-52
2021/10/03 02:21:55;;;;;;;5.65;4.10;;;;;;;18.53;61.58;99167.13;5051431;28;20383;-52
2021/10/03 02:24:22;;;;;;;5.25;4.03;;;;;;;18.51;61.47;99161.91;5051097;28;20041;-54
2021/10/03 02:26:48;;;;;;;5.68;4.07;;;;;;;18.49;61.64;99163.03;5046608;28;20055;-52
2021/10/03 02:29:15;;;;;;;5.72;4.20;;;;;;;18.46;62.03;99158.81;5053322;28;20040;-52
2021/10/03 02:31:42;;;;;;;4.85;3.67;;;;;;;18.44;62.38;99159.97;5059463;28;20053;-54
2021/10/03 02:34:09;;;;;;;6.85;3.92;;;;;;;18.42;62.55;99154.75;5061572;28;20048;-53
2021/10/03 02:36:36;;;;;;;5.90;4.13;;;;;;;18.42;62.31;99146.72;5060201;28;20049;-52
2021/10/03 02:39:03;;;;;;;6.10;4.10;;;;;;;18.42;62.01;99140.50;5062465;28;20048;-52
2021/10/03 02:41:30;;;;;;;5.07;3.92;;;;;;;18.46;62.17;99147.25;5057897;28;20521;-53
2021/10/03 02:43:58;;;;;;;4.40;3.78;;;;;;;18.44;62.23;99146.56;5059276;28;20462;-54
2021/10/03 02:46:26;;;;;;;6.80;4.22;;;;;;;18.43;62.13;99135.00;5059011;28;20711;-53
2021/10/03 02:48:53;;;;;;;5.72;4.15;;;;;;;18.37;62.37;99135.63;5063010;28;20067;-54
2021/10/03 02:51:22;;;;;;;5.70;4.10;;;;;;;18.34;62.61;99127.03;5052603;28;20144;-52
2021/10/03 02:53:50;;;;;;;5.10;4.25;;;;;;;18.34;62.44;99133.25;5056497;28;20054;-51
2021/10/03 02:56:18;;;;;;;6.10;4.05;;;;;;;18.34;62.80;99130.56;5059874;28;20450;-53
2021/10/03 02:58:44;;;;;;;5.28;4.40;;;;;;;18.29;62.95;99121.28;5046794;28;20450;-52
2021/10/03 03:01:11;;;;;;;4.47;4.07;;;;;;;18.23;63.19;99130.78;5059474;28;20044;-53
2021/10/03 03:03:37;;;;;;;6.45;4.18;;;;;;;18.18;63.67;99130.38;5046528;28;20142;-53
2021/10/03 03:06:06;;;;;;;7.00;4.13;;;;;;;18.17;63.58;99120.66;5052424;28;20040;-53
2021/10/03 03:08:33;;;;;;;5.43;4.18;;;;;;;18.15;63.39;99123.50;5055312;28;20425;-53
2021/10/03 03:11:00;;;;;;;4.55;4.10;;;;;;;18.13;63.62;99122.78;5055772;28;20048;-54
2021/10/03 03:13:27;;;;;;;5.25;4.45;;;;;;;18.10;63.90;99115.06;5061390;28;20059;-52
2021/10/03 03:15:53;;;;;;;5.97;4.15;;;;;;;18.10;63.96;99122.28;5055782;28;20055;-52
2021/10/03 03:18:20;;;;;;;6.18;4.35;;;;;;;18.04;64.13;99122.88;5057273;28;20087;-53
2021/10/03 03:20:46;;;;;;;5.10;4.30;;;;;;;17.97;64.42;99122.63;5056391;28;20375;-55
2021/10/03 03:23:13;;;;;;;5.60;4.25;;;;;;;17.90;64.77;99113.50;5058773;28;20517;-54
2021/10/03 03:25:39;;;;;;;4.88;4.38;;;;;;;17.82;65.31;99119.59;5060688;28;20514;-52
2021/10/03 03:28:07;;;;;;;6.20;4.80;;;;;;;17.76;65.82;99124.72;5052860;28;20429;-53
2021/10/03 03:30:35;;;;;;;6.97;4.65;;;;;;;17.72;66.38;99110.78;5062532;28;20075;-53
2021/10/03 03:33:02;;;;;;;7.07;4.68;;;;;;;17.65;66.16;99107.00;5057396;28;20063;-53
2021/10/03 03:35:28;;;;;;;4.70;4.20;;;;;;;17.59;66.47;99104.91;5057436;28;20044;-53
2021/10/03 03:37:55;;;;;;;6.13;4.35;;;;;;;17.49;66.50;99085.34;5059132;28;20044;-52
2021/10/03 03:40:22;;;;;;;6.68;4.75;;;;;;;17.55;67.03;99111.53;5054244;28;20068;-53
2021/10/03 03:42:48;;;;;;;6.18;4.35;;;;;;;17.50;67.17;99111.13;5056114;28;20040;-53
2021/10/03 03:45:15;;;;;;;5.40;4.30;;;;;;;17.46;67.56;99104.38;5054205;28;20041;-52
2021/10/03 03:47:41;;;;;;;5.40;4.50;;;;;;;17.41;67.75;99103.97;5056491;28;20044;-53
2021/10/03 03:50:15;;;;;;;6.60;4.70;;;;;;;17.39;68.03;99108.63;5046617;28;20410;-53
2021/10/03 03:52:42;;;;;;;6.63;4.10;;;;;;;17.38;68.36;99096.25;5055435;28;20044;-53
2021/10/03 03:55:09;;;;;;;4.45;3.85;;;;;;;17.36;68.44;99103.56;5055053;28;20040;-52
2021/10/03 03:57:36;;;;;;;5.53;4.78;;;;;;;17.32;68.48;99097.66;5056944;28;20427;-53
2021/10/03 04:00:05;;;;;;;5.40;4.57;;;;;;;17.31;68.67;99103.19;5054432;28;20478;-52
2021/10/03 04:02:32;;;;;;;7.30;4.30;;;;;;;17.30;69.01;99098.81;5056384;28;20045;-54
2021/10/03 04:04:58;;;;;;;5.75;4.63;;;;;;;17.28;69.15;99096.28;5051634;28;20052;-54
2021/10/03 04:07:25;;;;;;;7.28;4.35;;;;;;;17.26;69.42;99097.41;5059896;28;20051;-53
2021/10/03 04:09:51;;;;;;;5.00;4.10;;;;;;;17.25;69.36;99101.91;5052611;28;20045;-53
2021/10/03 04:12:18;;;;;;;5.70;4.10;;;;;;;17.24;69.50;99099.38;5060885;28;20055;-53
2021/10/03 04:14:44;;;;;;;5.95;4.38;;;;;;;17.23;69.98;99092.34;5053455;28;20045;-53
2021/10/03 04:17:11;;;;;;;5.90;4.35;;;;;;;17.19;70.33;99091.78;5066039;28;20051;-54
2021/10/03 04:19:37;;;;;;;6.07;4.47;;;;;;;17.17;70.76;99091.09;5065597;28;20044;-54
2021/10/03 04:22:04;;;;;;;6.80;4.57;;;;;;;17.12;71.20;99088.03;5061020;28;20048;-52
2021/10/03 04:24:30;;;;;;;6.47;4.55;;;;;;;17.15;71.13;99101.13;5054052;28;20048;-54
2021/10/03 04:26:57;;;;;;;7.15;5.05;;;;;;;17.12;71.29;99099.56;5065155;28;20249;-55
2021/10/03 04:29:23;;;;;;;5.45;4.38;;;;;;;17.10;71.92;99098.88;5065363;28;20048;-52
2021/10/03 04:31:50;;;;;;;5.70;4.47;;;;;;;17.09;72.08;99097.19;5066889;28;20052;-53
2021/10/03 04:34:16;;;;;;;7.10;4.80;;;;;;;17.07;72.22;99099.16;5064504;28;20055;-52
2021/10/03 04:36:43;;;;;;;5.43;4.13;;;;;;;17.07;72.09;99099.16;5059641;28;20502;-52
2021/10/03 04:39:09;;;;;;;5.93;4.38;;;;;;;17.03;72.25;99092.41;5059033;28;20494;-52
2021/10/03 04:41:36;;;;;;;7.80;4.97;;;;;;;17.05;72.31;99087.75;5065712;28;20067;-54
2021/10/03 04:44:02;;;;;;;5.00;4.22;;;;;;;17.03;72.48;99073.69;5054357;28;20041;-53
2021/10/03 04:46:29;;;;;;;5.03;4.22;;;;;;;17.05;72.45;99079.72;5055118;28;20048;-54
2021/10/03 04:48:56;;;;;;;5.50;4.28;;;;;;;17.05;72.74;99070.84;5056233;28;20564;-52
2021/10/03 04:51:22;;;;;;;6.63;4.45;;;;;;;17.05;72.99;99069.03;5057223;28;20566;-53
2021/10/03 04:53:49;;;;;;;5.95;4.85;;;;;;;17.05;73.07;99069.03;5059012;28;20044;-54
2021/10/03 04:56:16;;;;;;;5.03;4.32;;;;;;;17.08;72.46;99066.06;5051204;28;20420;-52
2021/10/03 04:58:42;;;;;;;5.45;4.40;;;;;;;16.98;72.13;99043.88;5061577;28;20073;-53
2021/10/03 05:01:11;;;;;;;6.95;4.55;;;;;;;17.00;72.11;99044.53;5058582;28;20041;-53
2021/10/03 05:03:37;;;;;;;5.85;4.40;;;;;;;17.12;71.61;99061.28;5061582;28;20052;-53
2021/10/03 05:06:07;;;;;;;5.38;4.32;;;;;;;17.11;71.76;99057.75;5062686;28;20052;-52
2021/10/03 05:08:35;;;;;;;7.05;4.18;;;;;;;17.11;72.00;99056.91;5059143;28;20049;-53
2021/10/03 05:11:02;;;;;;;4.43;3.92;;;;;;;17.10;72.25;99050.72;5063098;28;20048;-52
2021/10/03 05:13:29;;;;;;;5.55;4.20;;;;;;;17.09;72.49;99058.88;5056330;28;20048;-52
2021/10/03 05:15:56;;;;;;;5.18;4.25;;;;;;;17.07;73.01;99052.84;5057831;28;20759;-54
2021/10/03 05:18:23;;;;;;;5.32;4.68;;;;;;;17.03;73.33;99065.66;5056110;28;20051;-53
2021/10/03 05:20:50;;;;;;;6.35;5.10;;;;;;;17.00;73.35;99060.59;5059092;28;20037;-53
2021/10/03 05:23:17;;;;;;;6.03;4.65;;;;;;;16.99;73.52;99066.94;5059123;28;20264;-52
2021/10/03 05:25:44;;;;;;;5.35;4.40;;;;;;;16.97;73.53;99063.56;5056423;28;20040;-52
2021/10/03 05:28:10;;;;;;;5.68;4.75;;;;;;;16.99;74.25;99069.63;5061202;28;20044;-52
2021/10/03 05:30:37;;;;;;;6.13;5.20;;;;;;;17.02;74.16;99066.63;5054387;28;20051;-52
2021/10/03 05:33:03;;;;;;;7.50;5.13;;;;;;;16.96;74.55;99069.06;5063774;28;20048;-53
2021/10/03 05:35:30;;;;;;;5.72;5.05;;;;;;;16.90;74.63;99065.13;5063912;28;20043;-51
2021/10/03 05:37:56;;;;;;;7.50;5.35;;;;;;;16.83;75.26;99074.72;5063341;28;20040;-53
2021/10/03 05:40:23;;;;;;;6.30;5.07;;;;;;;16.78;75.37;99079.66;5057930;28;20040;-55
2021/10/03 05:42:49;;;;;;;6.75;4.78;;;;;;;16.73;75.81;99089.91;5060404;28;20371;-53
2021/10/03 05:45:16;;;;;;;5.80;5.18;;;;;;;16.68;76.70;99082.34;5055514;28;20486;-52
2021/10/03 05:47:42;;;;;;;6.65;5.15;;;;;;;16.66;76.73;99083.47;5063500;28;20040;-52
2021/10/03 05:50:10;;;;;;;7.72;5.38;;;;;;;16.68;76.33;99081.50;5063951;28;20055;-53
2021/10/03 05:52:36;;;;;;;7.38;5.25;;;;;;;16.71;76.14;99086.53;5060145;28;20485;-53
2021/10/03 05:55:03;;;;;;;6.50;5.10;;;;;;;16.69;76.34;99086.69;5060435;28;20063;-53
2021/10/03 05:57:29;;;;;;;7.05;5.03;;;;;;;16.69;76.50;99078.66;5062071;28;20045;-53
2021/10/03 05:59:56;;;;;;;5.28;4.63;;;;;;;16.71;76.40;99083.88;5062264;28;20045;-53
2021/10/03 06:02:22;;;;;;;6.82;5.30;;;;;;;16.71;76.36;99084.72;5061738;28;20044;-51
2021/10/03 06:04:49;;;;;;;7.05;4.97;;;;;;;16.72;76.08;99083.72;5064806;28;20044;-53
2021/10/03 06:07:16;;;;;;;6.70;5.43;;;;;;;16.73;76.17;99087.25;5058832;28;20047;-53
2021/10/03 06:09:42;;;;;;;6.38;4.97;;;;;;;16.73;76.10;99084.56;5055676;28;20049;-52
2021/10/03 06:12:09;;;;;;;6.63;4.85;;;;;;;16.72;76.77;99097.09;5053489;28;20052;-52
2021/10/03 06:14:35;;;;;;;6.93;5.30;;;;;;;16.70;76.83;99096.38;5056675;28;20056;-52
2021/10/03 06:17:03;;;;;;;7.25;5.30;;;;;;;16.70;76.77;99101.72;5053681;28;20044;-53
2021/10/03 06:19:29;;;;;;;7.10;5.30;;;;;;;16.69;77.27;99096.53;5051747;28;20048;-53
2021/10/03 06:21:57;;;;;;;8.88;5.40;;;;;;;16.67;77.48;99107.38;5057417;28;20045;-53
2021/10/03 06:24:24;;;;;;;6.45;5.13;;;;;;;16.66;77.40;99105.69;5048771;28;20063;-53
2021/10/03 06:26:50;;;;;;;6.78;5.50;;;;;;;16.67;77.50;99103.88;5060573;28;20040;-53
2021/10/03 06:29:17;;;;;;;7.88;5.53;;;;;;;16.67;77.15;99110.06;5055725;28;20048;-53
2021/10/03 06:31:43;;;;;;;6.50;4.90;;;;;;;16.67;77.38;99106.53;5052504;28;20480;-52
2021/10/03 06:34:10;;;;;;;6.93;5.60;;;;;;;16.69;77.50;99112.56;5059571;28;20060;-53
2021/10/03 06:36:37;;;;;;;7.57;4.60;;;;;;;16.58;77.71;99097.50;5036993;28;20055;-54
2021/10/03 06:39:05;;;;;;;5.80;4.88;;;;;;;16.70;77.59;99119.59;5055994;28;20052;-53
2021/10/03 06:41:31;;;;;;;6.63;5.07;;;;;;;16.58;77.66;99096.66;5062263;28;20044;-54
2021/10/03 06:43:58;;;;;;;7.07;4.95;;;;;;;16.70;77.73;99117.78;5050419;28;20343;-54
2021/10/03 06:46:25;;;;;;;6.43;4.90;;;;;;;16.71;77.61;99116.78;5063790;28;20578;-52
2021/10/03 06:48:51;;;;;;;6.47;5.55;;;;;;;16.72;77.84;99120.31;5053700;28;20572;-54
2021/10/03 06:51:18;;;;;;;7.30;5.22;;;;;;;16.74;78.35;99116.50;5056841;28;20569;-53
2021/10/03 06:53:44;;;;;;;8.40;5.88;;;;;;;16.56;78.30;99091.44;5050557;28;20040;-53
2021/10/03 06:56:11;;;;;;;10.57;5.80;;;;;;;16.72;78.78;99123.81;5035227;28;20041;-52
2021/10/03 06:58:38;;;;;;;7.43;5.38;;;;;;;16.70;79.14;99128.47;5051983;28;20036;-54
2021/10/03 07:01:04;;;;;;;7.10;5.75;;;;;;;16.68;79.77;99133.13;5059144;28;20044;-53
2021/10/03 07:03:31;;;;;;;8.98;5.93;;;;;;;16.69;80.27;99136.63;5063292;28;20052;-53
2021/10/03 07:05:58;;;;;;;7.70;5.57;;;;;;;16.69;80.54;99128.59;5050963;28;20048;-53
2021/10/03 07:08:24;;;;;;;6.15;5.47;;;;;;;16.70;81.07;99132.97;5062636;28;20486;-54
2021/10/03 07:10:51;;;;;;;8.90;6.10;;;;;;;16.67;81.73;99139.47;5060881;28;20517;-53
2021/10/03 07:13:17;;;;;;;7.45;6.00;;;;;;;16.69;81.57;99141.97;5063033;28;20056;-54
2021/10/03 07:15:44;;;;;;;7.47;5.95;;;;;;;16.65;82.13;99141.44;5046377;28;20047;-55
2021/10/03 07:18:12;;;;;;;8.38;6.18;;;;;;;16.67;82.25;99149.31;5046228;28;20055;-54
2021/10/03 07:20:39;;;;;;;8.32;5.57;;;;;;;16.67;82.71;99146.63;5044084;28;20127;-53
2021/10/03 07:23:05;;;;;;;9.85;6.35;;;;;;;16.66;83.43;99145.78;5060268;28;20581;-54
2021/10/03 07:25:32;;;;;;;8.07;6.63;;;;;;;16.66;83.42;99152.97;5054249;28;20048;-54
2021/10/03 07:27:58;;;;;;;7.93;6.43;;;;;;;16.66;83.93;99144.94;5051062;28;20041;-55
2021/10/03 07:30:25;;;;;;;8.65;5.97;;;;;;;16.67;83.73;99160.00;5059926;28;20048;-56
2021/10/03 07:32:51;;;;;;;7.47;6.10;;;;;;;16.65;84.29;99162.81;5052272;28;20055;-52
2021/10/03 07:35:18;;;;;;;6.80;5.78;;;;;;;16.66;84.50;99163.66;5060244;28;20044;-53
2021/10/03 07:37:45;;;;;;;10.23;6.00;;;;;;;16.62;84.75;99159.53;5053655;28;20052;-55
2021/10/03 07:40:11;;;;;;;7.82;6.30;;;;;;;16.65;85.16;99162.81;5057326;28;20052;-53
2021/10/03 07:42:38;;;;;;;9.25;5.93;;;;;;;16.66;85.42;99163.66;5056972;28;20454;-53
2021/10/03 07:45:05;;;;;;;8.35;5.40;;;;;;;16.67;85.63;99170.69;5058494;28;20052;-53
2021/10/03 07:47:32;;;;;;;7.57;5.80;;;;;;;16.67;85.86;99173.38;5063007;28;20041;-53
2021/10/03 07:49:58;;;;;;;8.57;6.63;;;;;;;16.68;86.21;99170.56;5060818;28;20536;-52
2021/10/03 07:52:25;;;;;;;7.03;5.95;;;;;;;16.59;85.91;99149.97;5059425;28;20052;-54
2021/10/03 07:54:52;;;;;;;8.30;6.20;;;;;;;16.73;86.15;99167.44;5064109;28;20488;-53
2021/10/03 07:57:19;;;;;;;6.68;5.70;;;;;;;16.72;86.20;99169.25;5060732;28;20052;-54
2021/10/03 07:59:46;;;;;;;11.00;6.78;;;;;;;16.77;86.63;99166.19;5059135;28;20052;-53
2021/10/03 08:02:12;;;;;;;11.57;6.53;;;;;;;16.79;86.10;99170.41;5059549;28;20049;-53
2021/10/03 08:04:39;;;;;;;8.52;6.32;;;;;;;16.79;86.40;99166.88;5061853;28;20052;-53
2021/10/03 08:07:05;;;;;;;8.15;5.88;;;;;;;16.82;85.92;99166.63;5052783;28;20045;-54
2021/10/03 08:09:32;;;;;;;9.90;5.75;;;;;;;16.84;86.30;99159.31;5060584;28;20048;-54
2021/10/03 08:11:58;;;;;;;11.10;6.15;;;;;;;16.88;86.33;99162.50;5059522;28;20051;-52
2021/10/03 08:14:25;;;;;;;9.63;6.50;;;;;;;16.91;86.26;99168.44;5052338;28;20048;-54
2021/10/03 08:16:52;;;;;;;8.25;5.80;;;;;;;16.98;85.63;99166.88;5052713;28;20044;-52
2021/10/03 08:19:18;;;;;;;8.35;6.07;;;;;;;17.05;83.44;99169.81;5064956;28;20501;-54
2021/10/03 08:21:45;;;;;;;9.32;6.30;;;;;;;17.10;83.12;99164.88;5054202;28;20044;-52
2021/10/03 08:24:11;;;;;;;10.25;6.38;;;;;;;17.11;82.75;99169.25;5059797;28;21225;-52
2021/10/03 08:26:38;;;;;;;9.18;5.93;;;;;;;17.17;83.44;99169.50;5053002;28;20064;-52
2021/10/03 08:29:04;;;;;;;8.20;6.63;;;;;;;17.26;84.31;99164.31;5060710;28;20087;-52
2021/10/03 08:31:31;;;;;;;10.30;7.28;;;;;;;17.26;83.56;99175.84;5061843;28;20063;-52
2021/10/03 08:33:58;;;;;;;9.10;6.78;;;;;;;17.12;83.56;99155.75;5055408;28;20524;-54
2021/10/03 08:36:24;;;;;;;12.20;7.15;;;;;;;17.21;84.14;99175.41;5061664;28;20068;-56
2021/10/03 08:38:53;;;;;;;9.50;6.88;;;;;;;17.18;84.38;99173.03;5057442;28;20041;-52
2021/10/03 08:41:20;;;;;;;10.48;6.93;;;;;;;17.17;84.68;99180.22;5042200;28;20454;-53
2021/10/03 08:43:49;;;;;;;10.40;7.65;;;;;;;17.15;84.94;99181.38;5057861;28;20044;-54
2021/10/03 08:46:16;;;;;;;10.88;7.55;;;;;;;17.08;85.16;99172.22;5059959;28;20127;-53
2021/10/03 08:48:44;;;;;;;13.55;7.50;;;;;;;17.11;85.04;99187.97;5057664;28;20410;-54
2021/10/03 08:51:11;;;;;;;11.90;7.75;;;;;;;17.06;85.14;99177.69;5062125;28;20470;-52
2021/10/03 08:53:37;;;;;;;11.75;7.68;;;;;;;17.10;85.34;99187.13;5059653;28;20577;-52
2021/10/03 08:56:05;;;;;;;11.27;6.72;;;;;;;17.13;85.89;99176.16;5064444;28;20435;-54
2021/10/03 08:58:33;;;;;;;10.48;7.38;;;;;;;17.15;86.42;99176.00;5051110;28;20061;-54
2021/10/03 09:01:00;;;;;;;11.90;8.13;;;;;;;17.14;86.18;99177.84;5057292;28;20044;-54
2021/10/03 09:03:26;;;;;;;8.85;7.43;;;;;;;17.15;86.23;99166.16;5058226;28;20048;-53
2021/10/03 09:05:56;;;;;;;10.80;7.72;;;;;;;17.17;85.99;99174.84;5057023;28;20047;-53
2021/10/03 09:08:28;;;;;;;11.60;7.90;;;;;;;17.17;85.33;99166.00;5056178;28;20520;-51
2021/10/03 09:11:05;;;;;;;12.10;7.10;;;;;;;17.22;86.05;99179.78;5050374;28;20414;-53
2021/10/03 09:13:31;;;;;;;10.65;7.68;;;;;;;17.26;85.77;99188.38;5058981;28;20048;-54
2021/10/03 09:16:26;;;;;;;12.50;7.75;;;;;;;17.28;85.66;99181.91;5057528;28;20041;-54
2021/10/03 09:18:58;;;;;;;12.35;7.72;;;;;;;17.33;85.39;99194.81;5047781;28;20568;-54
2021/10/03 09:21:31;;;;;;;13.93;7.95;;;;;;;17.35;85.15;99177.66;5053394;28;20052;-55
2021/10/03 09:24:00;;;;;;;12.95;7.53;;;;;;;17.36;85.18;99184.69;5058976;28;20047;-52
2021/10/03 09:26:28;;;;;;;11.57;8.00;;;;;;;17.41;85.53;99193.13;5059172;28;20054;-54
2021/10/03 09:28:55;;;;;;;13.48;7.70;;;;;;;17.42;84.72;99194.81;5060576;28;20045;-54
2021/10/03 09:31:22;;;;;;;11.48;7.93;;;;;;;17.43;84.89;99201.03;5056177;28;20053;-54
2021/10/03 09:33:57;;;;;;;13.30;7.85;;;;;;;17.45;85.62;99210.59;5062087;28;20048;-54
2021/10/03 09:36:25;;;;;;;12.75;8.20;;;;;;;17.51;85.58;99219.88;5053306;28;20048;-53
2021/10/03 09:38:59;;;;;;;12.48;8.10;;;;;;;17.54;85.72;99193.66;5065473;28;20052;-52
2021/10/03 09:41:29;;;;;;;11.95;7.90;;;;;;;17.60;85.88;99192.25;5058855;28;20053;-53
2021/10/03 09:43:59;;;;;;;12.25;7.88;;;;;;;17.68;86.05;99194.22;5046230;28;20506;-54
2021/10/03 09:46:29;;;;;;;14.10;9.07;;;;;;;17.71;86.14;99191.25;5058892;28;20410;-52
2021/10/03 09:48:55;;;;;;;13.80;8.57;;;;;;;17.72;85.92;99179.53;5059700;28;20058;-53
2021/10/03 09:51:24;;;;;;;12.50;8.43;;;;;;;17.78;86.30;99185.16;5060547;28;20040;-52
2021/10/03 09:53:51;;;;;;;9.73;7.47;;;;;;;17.86;86.30;99190.63;5053638;28;20045;-51
2021/10/03 09:56:18;;;;;;;10.85;7.90;;;;;;;17.93;86.04;99190.88;5064569;28;20055;-54
2021/10/03 09:58:46;;;;;;;12.73;7.50;;;;;;;18.00;85.29;99189.28;5060496;28;20051;-52
2021/10/03 10:01:16;;;;;;;10.73;7.20;;;;;;;18.04;83.70;99189.84;5057951;28;20553;-53
2021/10/03 10:03:43;;;;;;;10.80;6.88;;;;;;;18.07;83.41;99184.19;5062022;28;20045;-54
2021/10/03 10:06:12;;;;;;;12.40;8.02;;;;;;;17.97;83.42;99165.47;5054349;28;20135;-53
2021/10/03 10:08:40;;;;;;;9.00;6.70;;;;;;;18.11;82.80;99185.56;5059596;28;20044;-53
2021/10/03 10:11:15;;;;;;;12.13;7.35;;;;;;;18.15;81.49;99184.28;5056238;28;20063;-54
2021/10/03 10:13:52;;;;;;;10.50;6.70;;;;;;;18.17;82.47;99191.16;5054790;28;20040;-54
2021/10/03 10:16:49;;;;;;;10.73;7.38;;;;;;;18.22;83.31;99201.44;5052105;28;20109;-55
2021/10/03 10:19:25;;;;;;;9.80;7.28;;;;;;;18.27;83.75;99199.16;5052438;28;20044;-52
2021/10/03 10:22:19;;;;;;;10.85;7.50;;;;;;;18.31;83.88;99191.66;5057070;28;20467;-53
2021/10/03 10:24:49;;;;;;;10.15;8.40;;;;;;;18.33;83.20;99201.25;5049444;28;20041;-53
2021/10/03 10:27:18;;;;;;;11.82;7.28;;;;;;;18.34;83.22;99202.09;5055080;28;20508;-51
2021/10/03 10:29:51;;;;;;;12.85;6.93;;;;;;;18.37;83.29;99208.00;5053864;28;20501;-54
2021/10/03 10:32:22;;;;;;;9.43;7.05;;;;;;;18.39;83.84;99197.13;5046468;28;20041;-53
2021/10/03 10:35:07;;;;;;;10.48;7.20;;;;;;;18.41;83.67;99200.50;5058612;28;20077;-55
2021/10/03 10:37:49;;;;;;;10.43;7.35;;;;;;;18.42;83.52;99194.97;5060806;28;20048;-54
2021/10/03 10:40:36;;;;;;;10.25;7.88;;;;;;;18.52;82.31;99197.59;5053001;28;20041;-52
2021/10/03 10:43:02;;;;;;;9.98;7.63;;;;;;;18.62;81.30;99197.53;5059686;28;20364;-53
2021/10/03 10:45:33;;;;;;;11.35;7.82;;;;;;;18.67;81.62;99193.44;5058155;28;20166;-55
2021/10/03 10:48:09;;;;;;;11.57;7.85;;;;;;;18.73;81.47;99191.97;5061388;28;20565;-53
2021/10/03 10:50:48;;;;;;;11.55;7.78;;;;;;;18.77;81.80;99187.97;5053959;28;20189;-53
2021/10/03 10:53:19;;;;;;;13.82;7.97;;;;;;;18.80;82.60;99196.56;5062781;28;20048;-53
2021/10/03 10:56:10;;;;;;;14.38;8.65;;;;;;;18.84;82.96;99192.59;5053684;28;20229;-55
2021/10/03 10:58:50;;;;;;;11.48;7.93;;;;;;;18.92;82.69;99194.50;5052655;28;20043;-55
2021/10/03 11:01:35;;;;;;;12.00;7.55;;;;;;;18.98;82.67;99191.19;5059869;28;20048;-52
2021/10/03 11:04:06;;;;;;;16.15;8.07;;;;;;;19.06;81.71;99193.09;5057244;28;20136;-52
2021/10/03 11:06:32;;;;;;;10.05;6.88;;;;;;;19.10;80.58;99191.78;5060432;28;20052;-52
2021/10/03 11:09:05;;;;;;;9.90;7.13;;;;;;;19.13;78.16;99189.66;5057567;28;20049;-53
2021/10/03 11:11:39;;;;;;;10.65;6.90;;;;;;;19.16;78.36;99202.75;5058185;28;20040;-51
2021/10/03 11:14:05;;;;;;;10.23;7.00;;;;;;;19.17;77.59;99198.25;5055953;28;20046;-55
2021/10/03 11:16:37;;;;;;;11.50;6.22;;;;;;;19.18;75.85;99192.72;5053966;28;20049;-56
2021/10/03 11:19:14;;;;;;;10.20;6.57;;;;;;;19.25;75.87;99199.13;5064120;28;20412;-52
2021/10/03 11:22:08;;;;;;;8.52;6.88;;;;;;;19.32;75.51;99195.84;5052429;28;20037;-52
2021/10/03 11:25:06;;;;;;;9.80;7.22;;;;;;;19.35;75.82;99209.78;5045162;28;20596;-52
2021/10/03 11:27:32;;;;;;;10.68;6.90;;;;;;;19.39;76.68;99212.97;5039894;28;20049;-52
2021/10/03 11:30:00;;;;;;;8.02;6.50;;;;;;;19.45;76.70;99209.69;5050550;28;20074;-54
2021/10/03 11:32:38;;;;;;;9.80;7.45;;;;;;;19.57;77.74;99209.28;5056896;28;20066;-54
2021/10/03 11:35:08;;;;;;;12.07;8.63;;;;;;;19.62;78.39;99200.78;5056621;28;20052;-53
2021/10/03 11:37:39;;;;;;;11.27;8.10;;;;;;;19.61;79.18;99194.56;5059409;28;20049;-53